createdAt,value
2022-09-07T00:03:56.900Z,996.67
2022-09-07T00:08:56.760Z,996.78
2022-09-07T00:13:56.722Z,996.85
2022-09-07T00:18:56.772Z,997.01
2022-09-07T00:23:56.595Z,997.06
2022-09-07T00:28:57.683Z,997.26
2022-09-07T00:33:56.573Z,997.29
2022-09-07T00:38:57.539Z,997.22
2022-09-07T00:43:56.359Z,997.48
2022-09-07T00:48:56.333Z,997.29
2022-09-07T00:53:56.289Z,997.04
2022-09-07T00:58:56.229Z,996.94
2022-09-07T01:03:56.261Z,997.01
2022-09-07T01:08:56.262Z,997.06
2022-09-07T01:13:56.215Z,996.94
2022-09-07T01:18:56.172Z,996.93
2022-09-07T01:23:55.930Z,996.69
2022-09-07T01:28:55.881Z,996.61
2022-09-07T01:33:55.845Z,996.43
2022-09-07T01:38:55.787Z,996.32
2022-09-07T01:43:55.864Z,996.39
2022-09-07T01:48:55.674Z,996.22
2022-09-07T01:53:55.713Z,996.12
2022-09-07T01:58:55.815Z,995.90
2022-09-07T02:03:55.583Z,995.66
2022-09-07T02:08:55.645Z,995.63
2022-09-07T02:13:55.488Z,995.68
2022-09-07T02:18:55.333Z,995.67
2022-09-07T02:23:55.372Z,995.63
2022-09-07T02:28:55.223Z,995.60
2022-09-07T02:33:55.355Z,995.59
2022-09-07T02:38:56.208Z,995.56
2022-09-07T02:44:04.026Z,995.53
2022-09-07T02:48:54.981Z,995.54
2022-09-07T02:53:54.949Z,995.46
2022-09-07T02:58:54.985Z,995.39
2022-09-07T03:03:54.883Z,995.33
2022-09-07T03:08:54.844Z,995.30
2022-09-07T03:13:54.841Z,995.27
2022-09-07T03:18:55.716Z,995.34
2022-09-07T03:23:54.628Z,995.21
2022-09-07T03:28:54.551Z,995.20
2022-09-07T03:33:54.575Z,995.26
2022-09-07T03:38:54.531Z,995.26
2022-09-07T03:43:54.531Z,995.32
2022-09-07T03:48:55.556Z,995.33
2022-09-07T03:53:54.503Z,995.33
2022-09-07T03:58:54.485Z,995.22
2022-09-07T04:03:55.439Z,995.20
2022-09-07T04:08:54.278Z,995.25
2022-09-07T04:13:54.228Z,995.27
2022-09-07T04:18:54.146Z,995.36
2022-09-07T04:23:54.106Z,995.31
2022-09-07T04:28:54.186Z,995.34
2022-09-07T04:33:55.170Z,995.30
2022-09-07T04:38:53.910Z,995.28
2022-09-07T04:43:53.862Z,995.27
2022-09-07T04:48:53.706Z,995.31
2022-09-07T04:53:53.619Z,995.28
2022-09-07T04:58:53.663Z,995.27
2022-09-07T05:03:55.783Z,995.25
2022-09-07T05:08:53.671Z,995.30
2022-09-07T05:13:53.483Z,995.23
2022-09-07T05:18:54.637Z,995.24
2022-09-07T05:23:54.474Z,995.28
2022-09-07T05:38:54.250Z,995.33
2022-09-07T05:48:54.112Z,995.38
2022-09-07T05:53:53.066Z,995.42
2022-09-07T05:58:52.945Z,995.42
2022-09-07T06:03:53.036Z,995.48
2022-09-07T06:08:52.927Z,995.45
2022-09-07T06:13:57.689Z,995.38
2022-09-07T06:18:52.887Z,995.40
2022-09-07T06:23:52.675Z,995.45
2022-09-07T06:28:57.169Z,995.47
2022-09-07T06:33:53.625Z,995.56
2022-09-07T06:38:53.592Z,995.64
2022-09-07T06:43:52.503Z,995.70
2022-09-07T06:48:52.449Z,995.72
2022-09-07T06:53:52.739Z,995.80
2022-09-07T06:58:52.375Z,995.84
2022-09-07T07:03:52.200Z,995.87
2022-09-07T07:08:52.210Z,995.89
2022-09-07T07:13:52.069Z,995.96
2022-09-07T07:18:52.055Z,995.90
2022-09-07T07:23:52.121Z,995.89
2022-09-07T07:33:53.013Z,995.90
2022-09-07T07:38:59.244Z,996.00
2022-09-07T07:43:52.838Z,996.06
2022-09-07T07:48:51.712Z,996.14
2022-09-07T07:53:51.636Z,996.23
2022-09-07T07:58:52.080Z,996.25
2022-09-07T08:03:52.830Z,996.27
2022-09-07T08:08:51.524Z,996.38
2022-09-07T08:13:51.558Z,996.45
2022-09-07T08:18:51.667Z,996.38
2022-09-07T08:23:51.312Z,996.41
2022-09-07T08:28:51.322Z,996.37
2022-09-07T08:33:51.738Z,996.48
2022-09-07T08:38:51.229Z,996.50
2022-09-07T08:44:02.250Z,996.43
2022-09-07T08:48:51.283Z,996.38
2022-09-07T08:53:50.984Z,996.39
2022-09-07T08:58:58.766Z,996.34
2022-09-07T09:08:55.096Z,996.48
2022-09-07T09:13:50.747Z,996.52
2022-09-07T09:18:51.717Z,996.51
2022-09-07T09:23:50.651Z,996.59
2022-09-07T09:28:50.594Z,996.54
2022-09-07T09:33:50.548Z,996.42
2022-09-07T09:38:50.489Z,996.44
2022-09-07T09:43:50.439Z,996.37
2022-09-07T09:48:50.394Z,996.44
2022-09-07T09:53:51.322Z,996.43
2022-09-07T09:59:56.131Z,996.46
2022-09-07T10:08:50.168Z,996.14
2022-09-07T10:13:50.140Z,996.23
2022-09-07T10:18:50.090Z,996.43
2022-09-07T10:23:50.039Z,996.40
2022-09-07T10:38:50.866Z,996.49
2022-09-07T10:43:49.827Z,996.44
2022-09-07T10:48:49.762Z,996.41
2022-09-07T10:54:29.944Z,996.43
2022-09-07T10:59:06.092Z,996.44
2022-09-07T11:03:50.658Z,996.30
2022-09-07T11:14:11.910Z,996.42
2022-09-07T11:18:50.654Z,996.25
2022-09-07T11:23:49.425Z,996.33
2022-09-07T11:29:29.116Z,996.38
2022-09-07T11:38:50.267Z,996.34
2022-09-07T11:43:49.221Z,996.40
2022-09-07T11:48:49.156Z,996.25
2022-09-07T11:53:49.116Z,996.03
2022-09-07T11:58:49.039Z,996.20
2022-09-07T12:03:49.106Z,996.03
2022-09-07T12:08:50.951Z,995.91
2022-09-07T12:13:48.948Z,996.08
2022-09-07T12:18:48.844Z,995.79
2022-09-07T12:23:49.828Z,995.96
2022-09-07T12:28:48.770Z,995.84
2022-09-07T12:33:48.712Z,995.75
2022-09-07T12:38:48.658Z,995.73
2022-09-07T12:43:48.622Z,995.75
2022-09-07T12:48:48.574Z,995.75
2022-09-07T12:53:48.525Z,995.82
2022-09-07T12:58:49.466Z,995.84
2022-09-07T13:03:52.707Z,995.86
2022-09-07T13:08:48.378Z,995.64
2022-09-07T13:14:05.183Z,995.67
2022-09-07T13:18:49.250Z,995.74
2022-09-07T13:23:48.201Z,995.79
2022-09-07T13:28:48.163Z,995.59
2022-09-07T13:33:48.106Z,995.60
2022-09-07T13:38:48.052Z,995.65
2022-09-07T13:43:47.992Z,995.60
2022-09-07T13:48:47.933Z,995.50
2022-09-07T13:53:47.898Z,995.36
2022-09-07T13:58:47.822Z,995.36
2022-09-07T14:03:47.768Z,995.55
2022-09-07T14:08:47.723Z,995.42
2022-09-07T14:13:47.668Z,995.37
2022-09-07T14:18:47.635Z,995.27
2022-09-07T14:23:47.578Z,995.32
2022-09-07T14:28:47.522Z,995.27
2022-09-07T14:33:47.452Z,995.30
2022-09-07T14:44:58.772Z,995.32
2022-09-07T14:49:58.705Z,995.27
2022-09-07T14:54:58.716Z,995.35
2022-09-07T14:59:58.586Z,995.24
2022-09-07T15:04:58.536Z,995.19
2022-09-07T15:09:58.491Z,995.09
2022-09-07T15:14:58.457Z,995.12
2022-09-07T15:19:58.384Z,995.17
2022-09-07T15:24:58.337Z,995.09
2022-09-07T15:29:58.280Z,995.15
2022-09-07T15:34:58.248Z,995.16
2022-09-07T15:39:58.218Z,995.14
2022-09-07T15:44:58.118Z,995.13
2022-09-07T15:49:58.072Z,995.06
2022-09-07T15:54:58.000Z,994.98
2022-09-07T15:59:57.960Z,994.95
2022-09-07T16:04:57.955Z,994.97
2022-09-07T16:10:02.156Z,994.90
2022-09-07T16:14:57.792Z,994.82
2022-09-07T16:20:01.873Z,994.71
2022-09-07T16:24:57.693Z,994.65
2022-09-07T16:29:57.641Z,994.66
2022-09-07T16:34:57.577Z,994.64
2022-09-07T16:39:57.559Z,994.59
2022-09-07T16:46:02.612Z,994.64
2022-09-07T16:49:58.993Z,994.65
2022-09-07T16:54:57.353Z,994.72
2022-09-07T16:59:57.323Z,994.62
2022-09-07T17:04:57.260Z,994.57
2022-09-07T17:09:57.199Z,994.63
2022-09-07T17:14:57.142Z,994.66
2022-09-07T17:19:57.116Z,994.67
2022-09-07T17:24:57.034Z,994.71
2022-09-07T17:29:57.014Z,994.75
2022-09-07T17:34:56.965Z,994.75
2022-09-07T17:39:57.128Z,994.72
2022-09-07T17:44:56.829Z,994.73
2022-09-07T17:49:56.838Z,994.66
2022-09-07T17:54:56.739Z,994.58
2022-09-07T18:00:12.469Z,994.64
2022-09-07T18:04:57.633Z,994.60
2022-09-07T18:09:56.541Z,994.60
2022-09-07T18:14:56.503Z,994.63
2022-09-07T18:19:56.444Z,994.64
2022-09-07T18:24:56.380Z,994.59
2022-09-07T18:29:56.349Z,994.65
2022-09-07T18:34:56.366Z,994.61
2022-09-07T18:39:56.413Z,994.59
2022-09-07T18:49:57.203Z,994.64
2022-09-07T18:54:56.263Z,994.62
2022-09-07T18:59:56.111Z,994.61
2022-09-07T19:09:56.960Z,994.60
2022-09-07T19:14:55.863Z,994.64
2022-09-07T19:19:55.906Z,994.59
2022-09-07T19:24:55.735Z,994.52
2022-09-07T19:29:55.718Z,994.42
2022-09-07T19:34:55.693Z,994.45
2022-09-07T19:39:55.682Z,994.44
2022-09-07T19:44:55.589Z,994.52
2022-09-07T19:49:55.529Z,994.55
2022-09-07T19:54:55.446Z,994.52
2022-09-07T19:59:55.352Z,994.50
2022-09-07T20:04:55.302Z,994.53
2022-09-07T20:09:55.226Z,994.39
2022-09-07T20:14:55.169Z,994.31
2022-09-07T20:19:55.220Z,994.26
2022-09-07T20:24:55.145Z,994.29
2022-09-07T20:29:55.093Z,994.19
2022-09-07T20:34:54.961Z,994.08
2022-09-07T20:39:54.935Z,994.03
2022-09-07T20:44:54.891Z,994.07
2022-09-07T20:49:54.802Z,994.09
2022-09-07T21:22:31.444Z,993.88
2022-09-07T21:27:33.187Z,993.85
2022-09-07T21:32:31.694Z,993.80
2022-09-07T21:37:30.728Z,993.73
2022-09-07T21:42:34.111Z,993.82
2022-09-07T21:47:30.583Z,993.80
2022-09-07T21:52:30.521Z,993.78
2022-09-07T21:57:30.629Z,993.77
2022-09-07T22:02:30.510Z,993.67
2022-09-07T22:07:30.314Z,993.55
2022-09-07T22:12:30.306Z,993.61
2022-09-07T22:17:30.233Z,993.63
2022-09-07T22:22:30.187Z,993.63
2022-09-07T22:27:30.123Z,993.57
2022-09-07T22:32:30.060Z,993.54
2022-09-07T22:37:29.970Z,993.40
2022-09-07T22:42:29.989Z,993.33
2022-09-07T22:47:29.970Z,993.42
2022-09-07T22:52:29.946Z,993.51
2022-09-07T22:57:29.772Z,993.43
2022-09-07T23:02:29.704Z,993.50
2022-09-07T23:07:29.641Z,993.34
2022-09-07T23:12:29.761Z,993.26
2022-09-07T23:17:29.629Z,993.20
2022-09-07T23:22:29.573Z,993.21
2022-09-07T23:27:29.418Z,993.12
2022-09-07T23:32:29.466Z,993.05
2022-09-07T23:37:29.362Z,992.89
2022-09-07T23:42:29.244Z,992.89
2022-09-07T23:47:29.221Z,992.91
2022-09-07T23:52:29.141Z,992.79
2022-09-07T23:57:29.153Z,992.63
